Beltsville, MD (20704)

8:59 AM EDT on June 03, 2015 (GMT -0400)
High Point Homes | | Change Station
CLOSE
Current Station
Personal Weather Station
Location: Beltsville, MD
Elevation: 230 ft
Nearby Weather Stations

Elev 230 ft 39.05 °N, 76.94 °W | Updated 17 seconds ago

Overcast
Overcast
55.4 °F
Feels Like 55.4 °F
N
0.0
Wind Variable Wind from NNE
Gusts 1.0 mph

Today
High -- | Low -- °F
--% Chance of Precip.
Yesterday
High -- | Low -- °F
Precip. -- in
5:43 AM 8:28 PM
Full, 99% visible
Pressure 30.18 in
Visibility 3.0 miles
Clouds Overcast 900 ft
Dew Point 54 °F
Humidity 95%
Rainfall 0.07 in
Snow Depth Not available.
UV 1 out of 12
Pollen .50 out of 12
Air Quality Not available.
Flu Activity Sporadic
METAR KCGS 031245Z AUTO 03005KT 3SM OVC009 13/13 A3018 RMK AO1

More Conditions Fewer Conditions

Pressure 30.18 in
Visibility 3.0 miles
Clouds Overcast 900 ft
Dew Point 54 °F
Humidity 95%
Rainfall 0.07 in
Snow Depth Not available.
UV 1 out of 12
Pollen .50 out of 12
Air Quality Not available.
Flu Activity Sporadic
METAR KCGS 031245Z AUTO 03005KT 3SM OVC009 13/13 A3018 RMK AO1

More Conditions Fewer Conditions

10-Day Weather Forecast

×

Almanac

Astronomy

Jun. 03, 2015 Rise Set
Actual Time
Civil Twilight
Nautical Twilight
Astronomical Twilight
Moon
Length of Visible Light
Length of Day
Tomorrow will be .
, % of the Moon is Illuminated

Today's Extremes

State Highs State Lows

Community

WunderPhotos

Upload Photos

1,826,209 photos uploaded!

WunderBlogs® & News

Nearby

Air Quality

  Air Quality AQ Index Pollutant
Not available.

Snow Depth

Station Depth Elevation

Earthquake Activity

City Distance Mag. Time & Date
Minimum magnitude displayed is 2.5.

Coastal Water Temperatures

Place Temperature

Stations

Nearby Weather Stations

Station Location Temp. Windchill Dew Point Humidity Wind Precip. Elev Updated Type